createdAt,value
2022-10-17T00:02:52.281Z,19.36
2022-10-17T00:12:58.632Z,19.34
2022-10-17T00:23:05.105Z,19.34
2022-10-17T00:33:11.032Z,19.34
2022-10-17T00:43:17.204Z,19.31
2022-10-17T00:53:25.619Z,19.28
2022-10-17T01:03:32.015Z,19.27
2022-10-17T01:13:38.052Z,19.27
2022-10-17T01:23:44.428Z,19.22
2022-10-17T01:33:50.826Z,19.23
2022-10-17T01:43:57.203Z,19.22
2022-10-17T01:54:03.376Z,19.21
2022-10-17T02:04:09.824Z,19.21
2022-10-17T02:14:15.902Z,19.21
2022-10-17T02:24:22.139Z,19.21
2022-10-17T02:34:28.625Z,19.16
2022-10-17T02:44:36.100Z,19.18
2022-10-17T02:54:41.864Z,19.18
2022-10-17T03:04:48.317Z,19.16
2022-10-17T03:14:54.423Z,19.14
2022-10-17T03:25:01.028Z,19.14
2022-10-17T03:35:08.401Z,19.14
2022-10-17T03:45:17.643Z,19.14
2022-10-17T03:55:24.038Z,19.13
2022-10-17T04:05:30.403Z,19.13
2022-10-17T04:15:36.616Z,19.13
2022-10-17T04:25:42.573Z,19.13
2022-10-17T04:35:48.688Z,19.12
2022-10-17T04:45:54.964Z,19.10
2022-10-17T04:56:01.312Z,19.10
2022-10-17T05:06:07.641Z,19.08
2022-10-17T05:16:13.589Z,19.07
2022-10-17T05:26:20.926Z,19.07
2022-10-17T05:36:26.870Z,19.07
2022-10-17T05:46:34.321Z,19.05
2022-10-17T05:56:39.866Z,19.05
2022-10-17T06:06:48.088Z,19.08
2022-10-17T06:16:54.479Z,19.13
2022-10-17T06:27:00.838Z,19.16
2022-10-17T06:37:07.051Z,19.22
2022-10-17T06:47:19.975Z,19.22
2022-10-17T06:57:26.821Z,19.32
2022-10-17T07:07:34.405Z,19.32
2022-10-17T07:17:40.274Z,19.44
2022-10-17T07:27:47.499Z,19.44
2022-10-17T07:37:53.314Z,19.50
2022-10-17T07:48:00.389Z,19.55
2022-10-17T07:58:05.859Z,19.64
2022-10-17T08:08:13.064Z,19.82
2022-10-17T08:18:18.603Z,19.82
2022-10-17T08:28:25.852Z,20.04
2022-10-17T08:38:35.119Z,20.04
2022-10-17T08:48:46.317Z,20.31
2022-10-17T08:58:52.028Z,20.31
2022-10-17T09:08:59.021Z,20.48
2022-10-17T09:19:04.768Z,20.98
2022-10-17T09:29:11.717Z,20.98
2022-10-17T09:39:17.333Z,21.20
2022-10-17T09:49:24.491Z,21.90
2022-10-17T09:59:30.420Z,23.21
2022-10-17T10:09:39.584Z,23.57
2022-10-17T10:19:46.307Z,23.96
2022-10-17T10:29:53.814Z,24.26
2022-10-17T10:39:59.797Z,24.48
2022-10-17T10:50:07.105Z,24.59
2022-10-17T11:00:13.264Z,24.61
2022-10-17T11:10:20.916Z,24.50
2022-10-17T11:20:26.708Z,24.48
2022-10-17T11:30:33.910Z,24.38
2022-10-17T11:40:39.392Z,24.50
2022-10-17T12:00:57.098Z,23.95
2022-10-17T12:11:04.185Z,23.96
2022-10-17T12:21:09.932Z,24.00
2022-10-17T12:31:16.875Z,23.88
2022-10-17T12:41:22.291Z,23.92
2022-10-17T12:51:37.958Z,24.09
2022-10-17T13:01:40.255Z,23.96
2022-10-17T13:11:47.548Z,24.01
2022-10-17T13:21:53.361Z,24.00
2022-10-17T13:32:00.312Z,24.00
2022-10-17T13:42:05.952Z,24.31
2022-10-17T13:52:13.190Z,24.42
2022-10-17T14:02:18.937Z,24.42
2022-10-17T14:12:25.919Z,24.42
2022-10-17T14:22:31.579Z,24.44
2022-10-17T14:32:38.586Z,24.27
2022-10-17T14:42:44.122Z,24.11
2022-10-17T14:52:51.052Z,23.95
2022-10-17T15:02:56.584Z,23.76
2022-10-17T15:13:26.733Z,23.47
2022-10-17T15:23:14.592Z,23.19
2022-10-17T15:33:21.464Z,22.98
2022-10-17T15:43:27.450Z,22.76
2022-10-17T15:53:34.364Z,22.55
2022-10-17T16:03:39.500Z,22.55
2022-10-17T16:13:46.894Z,22.23
2022-10-17T16:23:52.383Z,22.10
2022-10-17T16:33:59.200Z,22.10
2022-10-17T16:44:04.713Z,21.96
2022-10-17T16:54:11.474Z,21.84
2022-10-17T17:04:17.370Z,21.62
2022-10-17T17:14:26.024Z,21.47
2022-10-17T17:24:31.372Z,21.37
2022-10-17T17:34:38.171Z,21.37
2022-10-17T17:44:43.482Z,21.28
2022-10-17T17:54:50.465Z,21.18
2022-10-17T18:04:55.833Z,21.06
2022-10-17T18:15:03.127Z,20.91
2022-10-17T18:25:08.778Z,20.86
2022-10-17T18:35:16.029Z,20.77
2022-10-17T18:45:21.585Z,20.71
2022-10-17T18:55:28.708Z,20.71
2022-10-17T19:05:34.078Z,20.60
2022-10-17T19:15:41.054Z,20.55
2022-10-17T19:25:46.872Z,20.55
2022-10-17T19:35:54.016Z,20.45
2022-10-17T19:45:59.867Z,20.40
2022-10-17T19:56:06.668Z,20.39
2022-10-17T20:06:12.131Z,20.39
2022-10-17T20:16:19.351Z,20.34
2022-10-17T20:26:36.985Z,20.30
2022-10-17T20:36:38.231Z,20.30
2022-10-17T20:46:52.909Z,20.23
2022-10-17T20:57:02.635Z,20.23
2022-10-17T21:07:10.742Z,20.21
2022-10-17T21:17:17.936Z,20.18
2022-10-17T21:27:24.131Z,20.18
2022-10-17T21:37:31.280Z,20.14
2022-10-17T21:47:38.548Z,20.13
2022-10-17T21:57:45.995Z,20.09
2022-10-17T22:07:51.315Z,20.08
2022-10-17T22:17:58.268Z,20.08
2022-10-17T22:28:04.092Z,20.04
2022-10-17T22:38:10.915Z,20.04
2022-10-17T22:48:16.808Z,19.99
2022-10-17T22:58:23.728Z,19.96
2022-10-17T23:08:29.443Z,19.96
2022-10-17T23:18:37.519Z,19.95
2022-10-17T23:28:43.532Z,19.95
2022-10-17T23:38:52.756Z,19.92
2022-10-17T23:49:01.124Z,19.91
2022-10-17T23:59:09.446Z,19.90
